Time;durP1;ratioP1;P1;durP2;ratioP2;P2;SDS_P1;SDS_P2;PMS_P1;PMS_P2;Temp;Humidity;BMP_temperature;BMP_pressure;BME280_temperature;BME280_humidity;BME280_pressure;Samples;Min_cycle;Max_cycle;Signal;HPM_P1;HPM_P2
2022/08/09 00:01:08;;;;;;;4.13;2.10;;;;;;;13.47;100.00;102950.50;5115482;28;20084;-72
2022/08/09 00:03:34;;;;;;;1.77;1.67;;;;;;;13.45;100.00;102948.88;5116749;28;20428;-73
2022/08/09 00:05:59;;;;;;;4.10;2.17;;;;;;;13.47;100.00;102955.00;5116816;28;20056;-70
2022/08/09 00:08:24;;;;;;;4.35;2.55;;;;;;;13.46;100.00;102947.94;5116531;28;20129;-72
2022/08/09 00:10:50;;;;;;;6.22;2.17;;;;;;;13.43;100.00;102942.78;5116103;27;20061;-71
2022/08/09 00:13:15;;;;;;;3.50;2.33;;;;;;;13.43;100.00;102948.97;5116678;28;20456;-70
2022/08/09 00:15:40;;;;;;;3.28;2.13;;;;;;;13.40;100.00;102947.41;5116265;28;20031;-71
2022/08/09 00:18:06;;;;;;;3.88;2.20;;;;;;;13.39;100.00;102947.47;5115596;28;20031;-71
2022/08/09 00:20:31;;;;;;;5.10;2.17;;;;;;;13.34;100.00;102941.59;5116247;27;20043;-71
2022/08/09 00:22:57;;;;;;;5.03;2.17;;;;;;;13.30;100.00;102946.28;5116067;28;20157;-71
2022/08/09 00:25:22;;;;;;;2.88;2.10;;;;;;;13.27;100.00;102946.50;5116217;28;20059;-71
2022/08/09 00:27:47;;;;;;;4.50;2.20;;;;;;;13.27;100.00;102940.28;5114801;28;20157;-71
2022/08/09 00:30:13;;;;;;;4.95;2.15;;;;;;;13.22;100.00;102944.13;5116070;28;20114;-70
2022/08/09 00:32:38;;;;;;;4.97;2.70;;;;;;;13.20;100.00;102935.38;5116671;28;20031;-71
2022/08/09 00:35:05;;;;;;;2.47;2.10;;;;;;;13.15;100.00;102945.53;5116042;28;20028;-71
2022/08/09 00:37:31;;;;;;;5.20;2.20;;;;;;;13.11;100.00;102941.34;5115966;27;20036;-71
2022/08/09 00:39:56;;;;;;;4.40;2.00;;;;;;;13.05;100.00;102944.44;5115835;28;20062;-71
2022/08/09 00:42:21;;;;;;;2.75;1.95;;;;;;;13.02;100.00;102945.50;5115846;28;20051;-71
2022/08/09 00:44:47;;;;;;;3.83;2.47;;;;;;;12.99;100.00;102948.38;5114850;28;20081;-71
2022/08/09 00:47:13;;;;;;;5.10;2.50;;;;;;;12.96;100.00;102942.41;5115818;28;20084;-71
2022/08/09 00:49:38;;;;;;;5.07;2.40;;;;;;;12.93;100.00;102946.13;5115696;28;20036;-70
2022/08/09 00:52:05;;;;;;;5.85;2.63;;;;;;;12.91;100.00;102950.69;5115326;28;20038;-71
2022/08/09 00:54:30;;;;;;;2.90;2.10;;;;;;;12.89;100.00;102947.28;5114334;28;20050;-70
2022/08/09 00:56:55;;;;;;;2.97;1.83;;;;;;;12.86;100.00;102947.47;5115493;28;20514;-71
2022/08/09 00:59:21;;;;;;;5.82;2.15;;;;;;;12.84;100.00;102936.06;5115956;28;20449;-71
2022/08/09 01:01:49;;;;;;;2.28;1.98;;;;;;;12.81;100.00;102941.59;5115360;28;20088;-71
2022/08/09 01:04:36;;;;;;;4.78;2.53;;;;;;;12.80;100.00;102943.41;5114178;28;20036;-71
2022/08/09 01:07:20;;;;;;;3.47;2.47;;;;;;;12.81;100.00;102941.59;5115568;28;20031;-71
2022/08/09 01:10:28;;;;;;;8.10;3.30;;;;;;;12.83;100.00;102948.53;5114869;28;20024;-71
2022/08/09 01:13:23;;;;;;;3.28;2.42;;;;;;;12.79;100.00;102940.84;5094155;28;20050;-71
2022/08/09 01:15:53;;;;;;;3.85;2.17;;;;;;;12.72;100.00;102947.53;5115192;28;20024;-71
2022/08/09 01:18:26;;;;;;;2.78;2.03;;;;;;;12.68;100.00;102944.22;5115098;28;20030;-70
2022/08/09 01:21:17;;;;;;;2.67;2.03;;;;;;;12.66;100.00;102943.47;5115531;27;20067;-72
2022/08/09 01:24:09;;;;;;;5.00;2.88;;;;;;;12.65;100.00;102939.09;5114964;28;20123;-72
2022/08/09 01:26:47;;;;;;;5.28;2.28;;;;;;;12.59;100.00;102943.00;5115646;28;20059;-71
2022/08/09 01:29:16;;;;;;;5.18;2.83;;;;;;;12.57;100.00;102946.72;5114253;28;20032;-71
2022/08/09 01:31:43;;;;;;;4.70;2.67;;;;;;;12.58;100.00;102943.13;5114901;28;20031;-71
2022/08/09 01:34:14;;;;;;;3.67;2.22;;;;;;;12.57;100.00;102944.94;5114893;28;20180;-72
2022/08/09 01:36:42;;;;;;;4.33;2.37;;;;;;;12.53;100.00;102938.94;5115125;28;20024;-71
2022/08/09 01:39:09;;;;;;;4.82;2.47;;;;;;;12.51;100.00;102950.69;5115219;28;20033;-71
2022/08/09 01:41:40;;;;;;;3.90;2.42;;;;;;;12.46;100.00;102947.44;5114588;28;20028;-71
2022/08/09 01:44:06;;;;;;;4.20;2.90;;;;;;;12.46;100.00;102944.78;5114977;28;20089;-71
2022/08/09 01:46:36;;;;;;;5.25;2.60;;;;;;;12.43;100.00;102944.97;5113288;28;20389;-71
2022/08/09 01:49:08;;;;;;;5.03;2.70;;;;;;;12.40;100.00;102943.34;5113298;28;20024;-71
2022/08/09 01:51:34;;;;;;;3.08;2.47;;;;;;;12.37;100.00;102946.22;5114393;28;20080;-71
2022/08/09 01:54:02;;;;;;;3.78;2.47;;;;;;;12.35;100.00;102949.00;5114190;28;20035;-71
2022/08/09 01:56:30;;;;;;;3.20;1.98;;;;;;;12.33;100.00;102953.59;5114403;28;20076;-71
2022/08/09 01:58:57;;;;;;;3.00;2.70;;;;;;;12.32;100.00;102957.19;5114522;28;20366;-72
2022/08/09 02:01:25;;;;;;;6.20;3.10;;;;;;;12.34;100.00;102962.44;5114390;28;20357;-71
2022/08/09 02:03:52;;;;;;;4.07;3.13;;;;;;;12.33;100.00;102964.25;5114197;28;20449;-72
2022/08/09 02:07:07;;;;;;;9.50;3.65;;;;;;;12.33;100.00;102963.38;5114574;28;20084;-71
2022/08/09 02:09:06;;;;;;;6.90;3.03;;;;;;;12.31;100.00;102963.50;5113633;28;20032;-71
2022/08/09 02:11:31;;;;;;;5.30;2.70;;;;;;;12.26;100.00;102957.59;5113255;28;20487;-71
2022/08/09 02:13:58;;;;;;;3.63;2.30;;;;;;;12.23;100.00;102951.63;5114025;28;20027;-72
2022/08/09 02:16:24;;;;;;;4.90;2.65;;;;;;;12.20;100.00;102958.00;5114015;28;20042;-71
2022/08/09 02:18:50;;;;;;;4.22;2.50;;;;;;;12.17;100.00;102952.84;5112355;28;20041;-73
2022/08/09 02:21:19;;;;;;;4.20;2.30;;;;;;;12.14;100.00;102943.22;5114294;28;20054;-71
2022/08/09 02:24:07;;;;;;;3.88;2.20;;;;;;;12.10;100.00;102944.38;5114084;28;20031;-71
2022/08/09 02:26:35;;;;;;;3.60;2.55;;;;;;;12.08;100.00;102946.28;5113839;28;20027;-72
2022/08/09 02:29:17;;;;;;;3.42;2.47;;;;;;;12.07;100.00;102939.22;5113949;28;20522;-71
2022/08/09 02:31:45;;;;;;;3.00;2.35;;;;;;;12.06;100.00;102947.34;5113730;28;20069;-71
2022/08/09 02:34:16;;;;;;;4.75;2.80;;;;;;;12.04;100.00;102944.75;5112521;28;20168;-71
2022/08/09 02:36:45;;;;;;;5.70;2.92;;;;;;;12.05;100.00;102946.50;5113878;28;20058;-71
2022/08/09 02:39:17;;;;;;;3.40;2.80;;;;;;;12.04;100.00;102946.59;5114237;28;20102;-71
2022/08/09 02:41:46;;;;;;;3.92;2.65;;;;;;;12.01;100.00;102944.13;5113935;28;20027;-71
2022/08/09 02:44:19;;;;;;;7.57;2.90;;;;;;;11.98;100.00;102940.66;5113451;28;20036;-73
2022/08/09 02:46:48;;;;;;;3.45;2.95;;;;;;;11.97;100.00;102940.75;5114387;28;20134;-71
2022/08/09 02:49:16;;;;;;;5.95;3.25;;;;;;;11.95;100.00;102932.00;5113502;28;20136;-71
2022/08/09 02:51:43;;;;;;;3.70;2.45;;;;;;;11.94;100.00;102930.28;5113529;28;20102;-72
2022/08/09 02:54:12;;;;;;;4.45;2.60;;;;;;;11.93;100.00;102939.28;5112158;28;20097;-71
2022/08/09 02:56:43;;;;;;;3.90;2.78;;;;;;;11.93;100.00;102937.44;5113435;28;20027;-71
2022/08/09 02:59:10;;;;;;;4.13;3.17;;;;;;;11.91;100.00;102925.13;5114126;28;20032;-71
2022/08/09 03:01:37;;;;;;;4.72;3.10;;;;;;;11.90;100.00;102932.28;5113429;28;20036;-71
2022/08/09 03:04:04;;;;;;;3.58;2.72;;;;;;;11.87;100.00;102927.13;5112908;28;20032;-71
2022/08/09 03:06:31;;;;;;;3.70;3.28;;;;;;;11.86;100.00;102928.09;5113320;28;20031;-71
2022/08/09 03:08:57;;;;;;;5.30;3.05;;;;;;;11.85;100.00;102923.69;5113555;28;20055;-71
2022/08/09 03:11:25;;;;;;;5.07;2.80;;;;;;;11.88;100.00;102928.81;5111619;28;20481;-70
2022/08/09 03:13:51;;;;;;;3.08;2.65;;;;;;;11.85;100.00;102925.50;5113873;28;20165;-71
2022/08/09 03:16:20;;;;;;;4.20;2.70;;;;;;;11.82;100.00;102926.56;5113115;28;20036;-71
2022/08/09 03:18:54;;;;;;;4.65;3.13;;;;;;;11.78;100.00;102922.38;5113532;28;20027;-71
2022/08/09 03:21:21;;;;;;;4.68;2.97;;;;;;;11.76;100.00;102926.94;5110986;28;20062;-70
2022/08/09 03:23:47;;;;;;;5.85;3.55;;;;;;;11.75;100.00;102931.44;5113159;28;20039;-72
2022/08/09 03:26:15;;;;;;;6.25;4.30;;;;;;;11.77;100.00;102934.00;5112879;28;20108;-72
2022/08/09 03:28:42;;;;;;;5.80;3.78;;;;;;;11.82;100.00;102935.44;5113790;28;20141;-71
2022/08/09 03:31:09;;;;;;;5.63;3.50;;;;;;;11.81;100.00;102936.38;5112364;28;20115;-72
2022/08/09 03:33:36;;;;;;;9.45;4.65;;;;;;;11.79;100.00;102940.09;5113188;28;20032;-72
2022/08/09 03:36:02;;;;;;;3.53;3.20;;;;;;;11.75;100.00;102941.25;5113401;28;20031;-73
2022/08/09 03:38:28;;;;;;;4.15;3.22;;;;;;;11.70;100.00;102951.31;5113204;28;20590;-71
2022/08/09 03:40:53;;;;;;;6.28;3.47;;;;;;;11.65;100.00;102938.28;5113169;28;20028;-72
2022/08/09 03:43:18;;;;;;;4.05;3.08;;;;;;;11.62;100.00;102939.31;5113009;28;20032;-71
2022/08/09 03:45:44;;;;;;;4.68;3.05;;;;;;;11.62;100.00;102938.47;5113377;28;20353;-71
2022/08/09 03:48:09;;;;;;;4.10;2.88;;;;;;;11.59;100.00;102941.34;5112702;28;20437;-72
2022/08/09 03:50:36;;;;;;;3.83;3.28;;;;;;;11.58;100.00;102947.59;5113149;28;20479;-72
2022/08/09 03:53:05;;;;;;;3.97;3.08;;;;;;;11.58;100.00;102944.94;5113717;28;20036;-72
2022/08/09 03:55:31;;;;;;;3.33;2.80;;;;;;;11.56;100.00;102947.69;5116738;28;20027;-72
2022/08/09 03:57:57;;;;;;;4.25;2.85;;;;;;;11.54;100.00;102959.41;5115317;28;20075;-71
2022/08/09 04:00:23;;;;;;;7.10;2.92;;;;;;;11.54;100.00;102962.06;5114877;28;20031;-71
2022/08/09 04:02:50;;;;;;;5.93;3.42;;;;;;;11.53;100.00;102968.38;5116316;28;20073;-71
2022/08/09 04:05:16;;;;;;;4.35;3.00;;;;;;;11.52;100.00;102969.31;5116616;28;20423;-72
2022/08/09 04:07:41;;;;;;;4.30;3.08;;;;;;;11.52;100.00;102969.31;5116684;28;20526;-71
2022/08/09 04:10:07;;;;;;;5.88;3.58;;;;;;;11.51;100.00;102970.25;5116464;28;20086;-72
2022/08/09 04:12:48;;;;;;;3.88;3.30;;;;;;;11.50;100.00;102974.75;5115106;28;20492;-70
2022/08/09 04:15:14;;;;;;;4.50;3.30;;;;;;;11.50;100.00;102977.41;5116640;28;20027;-71
2022/08/09 04:17:41;;;;;;;4.03;3.45;;;;;;;11.51;100.00;102973.81;5116258;28;20042;-71
2022/08/09 04:20:08;;;;;;;5.65;3.70;;;;;;;11.55;100.00;102983.31;5116667;28;20052;-71
2022/08/09 04:22:34;;;;;;;4.05;3.47;;;;;;;11.56;100.00;102982.38;5116299;27;20084;-71
2022/08/09 04:25:01;;;;;;;6.65;4.05;;;;;;;11.57;100.00;102983.22;5114667;28;20043;-71
2022/08/09 04:27:27;;;;;;;4.05;3.65;;;;;;;11.58;100.00;102982.25;5116205;28;20418;-71
2022/08/09 04:29:52;;;;;;;6.22;3.70;;;;;;;11.61;100.00;102980.28;5116217;28;20377;-71
2022/08/09 04:32:18;;;;;;;5.20;3.63;;;;;;;11.65;100.00;102986.28;5115031;28;20032;-72
2022/08/09 04:34:44;;;;;;;8.38;4.75;;;;;;;11.65;100.00;102983.63;5116284;28;20114;-71
2022/08/09 04:37:09;;;;;;;4.13;3.63;;;;;;;11.66;100.00;102988.00;5115852;28;20465;-71
2022/08/09 04:39:35;;;;;;;6.03;3.72;;;;;;;11.70;100.00;102988.66;5097901;28;20035;-71
2022/08/09 04:42:00;;;;;;;5.95;3.60;;;;;;;11.70;100.00;102991.31;5115758;28;20050;-70
2022/08/09 04:44:26;;;;;;;3.75;3.42;;;;;;;11.71;100.00;102991.22;5116108;28;20058;-71
2022/08/09 04:46:51;;;;;;;4.78;3.50;;;;;;;11.71;100.00;102991.22;5115914;28;20032;-70
2022/08/09 04:49:17;;;;;;;4.03;3.63;;;;;;;11.73;100.00;102993.81;5115957;28;20040;-71
2022/08/09 04:51:43;;;;;;;7.25;4.65;;;;;;;11.74;100.00;102988.38;5115836;28;20483;-72
2022/08/09 04:54:08;;;;;;;6.97;4.35;;;;;;;11.76;100.00;102989.16;5116038;28;20374;-71
2022/08/09 04:56:34;;;;;;;6.15;4.10;;;;;;;11.79;100.00;102983.63;5115759;28;20032;-71
2022/08/09 04:58:59;;;;;;;10.80;4.85;;;;;;;11.86;100.00;102980.59;5098222;28;20039;-71
2022/08/09 05:01:25;;;;;;;6.35;4.28;;;;;;;11.89;100.00;102980.38;5115470;28;20529;-71
2022/08/09 05:03:50;;;;;;;5.65;4.60;;;;;;;11.91;100.00;102987.34;5115333;28;20525;-71
2022/08/09 05:06:16;;;;;;;8.50;6.30;;;;;;;11.97;100.00;102996.78;5115189;28;20031;-72
2022/08/09 05:08:41;;;;;;;7.45;5.88;;;;;;;12.00;100.00;102991.25;5115529;28;20480;-71
2022/08/09 05:11:07;;;;;;;8.10;5.97;;;;;;;12.06;100.00;102996.25;5115269;28;20045;-71
2022/08/09 05:13:33;;;;;;;12.40;6.57;;;;;;;12.19;100.00;102992.78;5115153;28;20401;-71
2022/08/09 05:15:59;;;;;;;14.60;7.85;;;;;;;12.26;100.00;102994.13;5115400;28;20032;-71
2022/08/09 05:18:32;;;;;;;12.60;7.00;;;;;;;12.35;100.00;102996.19;5115704;28;20036;-70
2022/08/09 05:20:58;;;;;;;12.77;6.00;;;;;;;12.39;100.00;102995.06;5115707;27;20127;-71
2022/08/09 05:23:24;;;;;;;10.68;6.22;;;;;;;12.45;100.00;102996.44;5114882;28;20039;-72
2022/08/09 05:25:49;;;;;;;11.18;5.75;;;;;;;12.51;100.00;102980.91;5115330;28;20028;-72
2022/08/09 05:28:15;;;;;;;12.10;5.82;;;;;;;12.61;100.00;102993.66;5114258;28;20078;-72
2022/08/09 05:30:40;;;;;;;13.48;7.22;;;;;;;12.73;100.00;102992.84;5115532;28;20054;-73
2022/08/09 05:33:06;;;;;;;10.95;6.95;;;;;;;12.80;100.00;103006.66;5115346;28;20074;-72
2022/08/09 05:40:42;;;;;;;14.50;6.50;;;;;;;12.99;100.00;103001.81;5506020;22;20065;-72
2022/08/09 05:43:07;;;;;;;11.85;6.32;;;;;;;13.09;100.00;103009.22;5051649;28;20169;-77
2022/08/09 05:45:32;;;;;;;16.38;7.03;;;;;;;13.19;100.00;103008.47;5050884;28;20120;-79
2022/08/09 05:47:58;;;;;;;14.45;7.03;;;;;;;13.30;100.00;103013.13;5051325;28;20083;-73
2022/08/09 05:50:27;;;;;;;10.20;6.43;;;;;;;13.45;100.00;103019.28;5051841;28;20029;-73
2022/08/09 05:52:53;;;;;;;12.55;7.18;;;;;;;13.52;100.00;103017.03;5051005;28;20059;-72
2022/08/09 05:55:19;;;;;;;12.85;6.20;;;;;;;13.62;100.00;103015.44;5051280;28;20045;-72
2022/08/09 05:57:44;;;;;;;9.65;6.03;;;;;;;13.72;100.00;103021.03;5050626;28;20423;-73
2022/08/09 06:00:10;;;;;;;9.82;6.07;;;;;;;13.79;100.00;103027.63;5050942;28;20109;-76
2022/08/09 06:02:35;;;;;;;18.42;6.55;;;;;;;13.91;100.00;103028.59;5033031;28;20079;-76
2022/08/09 06:05:01;;;;;;;14.52;6.55;;;;;;;14.00;100.00;103029.78;5049545;28;20069;-78
2022/08/09 06:07:28;;;;;;;11.57;6.30;;;;;;;14.11;100.00;103029.88;5051218;28;20068;-76
2022/08/09 06:09:54;;;;;;;11.15;5.72;;;;;;;14.20;100.00;103036.41;5051301;28;20025;-77
2022/08/09 06:12:19;;;;;;;7.07;5.20;;;;;;;14.29;100.00;103030.38;5051612;28;20055;-76
2022/08/09 06:14:44;;;;;;;11.93;5.50;;;;;;;14.39;100.00;103043.94;5050749;28;20029;-77
2022/08/09 06:17:10;;;;;;;11.13;5.13;;;;;;;14.55;100.00;103038.34;5050270;28;20128;-77
2022/08/09 06:19:36;;;;;;;8.40;5.05;;;;;;;14.69;100.00;103035.56;5050578;28;20037;-76
2022/08/09 06:22:02;;;;;;;9.48;4.60;;;;;;;14.79;100.00;103023.19;5050862;28;20025;-76
2022/08/09 06:24:27;;;;;;;10.70;4.28;;;;;;;14.90;100.00;103037.59;5050028;28;20029;-76
2022/08/09 06:26:53;;;;;;;9.70;4.50;;;;;;;15.02;100.00;103036.69;5050788;28;20044;-76
2022/08/09 06:29:18;;;;;;;9.68;4.40;;;;;;;15.11;100.00;103044.06;5049269;28;20040;-76
2022/08/09 06:31:43;;;;;;;8.20;3.78;;;;;;;15.20;100.00;103042.50;5050489;28;20025;-76
2022/08/09 06:34:09;;;;;;;7.70;4.00;;;;;;;15.32;100.00;103046.94;5050569;28;20091;-76
2022/08/09 06:36:34;;;;;;;8.55;3.60;;;;;;;15.40;100.00;103051.69;5049202;28;20041;-76
2022/08/09 06:39:00;;;;;;;5.72;3.63;;;;;;;15.46;100.00;103040.50;5048875;28;20029;-77
2022/08/09 06:41:25;;;;;;;7.05;3.17;;;;;;;15.59;100.00;103048.47;5050670;28;20452;-76
2022/08/09 06:43:50;;;;;;;6.88;3.28;;;;;;;15.73;100.00;103051.91;5050273;28;20025;-77
2022/08/09 06:46:16;;;;;;;7.53;3.40;;;;;;;15.82;100.00;103054.78;5050345;28;20039;-77
2022/08/09 06:48:42;;;;;;;5.93;2.90;;;;;;;15.94;100.00;103054.78;5050011;28;20107;-76
2022/08/09 06:51:08;;;;;;;5.78;3.17;;;;;;;15.99;100.00;103057.97;5049742;28;20139;-77
2022/08/09 06:53:34;;;;;;;6.20;2.88;;;;;;;16.11;100.00;103057.00;5049981;28;20041;-77
2022/08/09 06:56:01;;;;;;;7.57;2.72;;;;;;;16.21;100.00;103054.41;5052315;28;20330;-76
2022/08/09 06:58:28;;;;;;;7.43;3.05;;;;;;;16.28;100.00;103063.69;5052174;28;20320;-77
2022/08/09 07:00:53;;;;;;;5.13;3.20;;;;;;;16.39;100.00;103063.69;5052129;28;20120;-76
2022/08/09 07:03:19;;;;;;;7.40;3.00;;;;;;;16.53;100.00;103065.28;5051064;28;20207;-77
2022/08/09 07:05:44;;;;;;;9.43;3.35;;;;;;;16.62;100.00;103062.81;5050025;28;20111;-76
2022/08/09 07:08:10;;;;;;;3.85;2.67;;;;;;;16.69;100.00;103059.50;5050613;28;20077;-77
2022/08/09 07:10:35;;;;;;;6.88;3.35;;;;;;;16.78;100.00;103057.03;5049969;28;20036;-76
2022/08/09 07:13:01;;;;;;;6.55;2.35;;;;;;;16.91;100.00;103065.81;5049906;28;20448;-76
2022/08/09 07:15:26;;;;;;;4.65;2.97;;;;;;;16.97;100.00;103070.69;5049709;28;20075;-77
2022/08/09 07:17:52;;;;;;;10.00;3.03;;;;;;;17.05;100.00;103068.22;5049794;28;20090;-76
2022/08/09 07:20:17;;;;;;;4.25;2.28;;;;;;;17.14;98.90;103076.50;5049729;28;20166;-77
2022/08/09 07:22:43;;;;;;;5.10;2.60;;;;;;;17.23;99.92;103068.53;5049688;28;20053;-76
2022/08/09 07:25:09;;;;;;;5.65;2.88;;;;;;;17.36;99.58;103059.41;5049736;28;20029;-77
2022/08/09 07:27:34;;;;;;;4.03;2.38;;;;;;;17.47;97.83;103053.97;5050985;28;20033;-76
2022/08/09 07:30:01;;;;;;;7.80;3.17;;;;;;;17.52;95.07;103048.19;5053450;28;20111;-76
2022/08/09 07:32:27;;;;;;;4.78;2.70;;;;;;;17.67;96.19;103051.41;5053930;28;20107;-76
2022/08/09 07:34:52;;;;;;;5.07;2.45;;;;;;;17.83;94.97;103046.41;5054052;28;20120;-76
2022/08/09 07:37:18;;;;;;;4.05;2.42;;;;;;;17.88;90.05;103046.00;5053863;28;20119;-77
2022/08/09 07:39:43;;;;;;;2.95;2.35;;;;;;;18.02;90.69;103048.38;5053540;28;20135;-77
2022/08/09 07:42:10;;;;;;;4.93;2.75;;;;;;;18.14;89.33;103044.59;5053917;28;20086;-77
2022/08/09 07:44:35;;;;;;;5.55;2.63;;;;;;;18.38;90.46;103046.09;5053669;28;20029;-77
2022/08/09 07:47:00;;;;;;;3.63;2.25;;;;;;;18.62;89.59;103044.91;5054550;28;20021;-76
2022/08/09 07:49:26;;;;;;;6.55;2.83;;;;;;;18.81;87.51;103052.13;5054172;28;20449;-77
2022/08/09 07:51:51;;;;;;;5.18;2.33;;;;;;;18.93;83.65;103052.91;5053649;28;20045;-77
2022/08/09 07:54:17;;;;;;;5.28;2.30;;;;;;;19.03;83.16;103045.66;5053316;28;20468;-75
2022/08/09 07:56:42;;;;;;;3.67;2.10;;;;;;;19.05;81.68;103049.09;5053515;28;20188;-76
2022/08/09 07:59:08;;;;;;;4.00;2.08;;;;;;;19.13;81.05;103048.38;5053437;28;20177;-76
2022/08/09 08:01:34;;;;;;;3.50;2.15;;;;;;;19.33;82.17;103043.81;5051684;28;20033;-76
2022/08/09 08:04:00;;;;;;;4.47;1.90;;;;;;;19.42;79.20;103052.91;5053312;28;20036;-76
2022/08/09 08:06:26;;;;;;;4.72;1.75;;;;;;;19.56;78.47;103056.00;5053187;28;20166;-76
2022/08/09 08:08:51;;;;;;;7.85;2.00;;;;;;;19.79;78.65;103058.38;5052268;28;20064;-77
2022/08/09 08:11:17;;;;;;;4.68;2.20;;;;;;;19.97;78.89;103057.63;5053536;28;20457;-77
2022/08/09 08:13:44;;;;;;;6.25;2.00;;;;;;;20.16;77.53;103068.38;5053066;28;20128;-77
2022/08/09 08:16:10;;;;;;;7.13;2.17;;;;;;;20.41;77.15;103069.53;5053237;28;20041;-76
2022/08/09 08:18:35;;;;;;;6.65;2.13;;;;;;;20.64;75.50;103069.09;5053095;28;20033;-75
2022/08/09 08:21:00;;;;;;;5.70;1.80;;;;;;;20.87;72.42;103058.75;5053098;28;20045;-76
2022/08/09 08:23:26;;;;;;;5.93;1.73;;;;;;;21.05;68.53;103060.59;5051491;28;20052;-76
2022/08/09 08:25:51;;;;;;;3.13;1.67;;;;;;;21.26;66.54;103054.88;5051426;28;20029;-76
2022/08/09 08:28:18;;;;;;;5.20;1.60;;;;;;;21.42;68.12;103064.97;5053121;28;20031;-76
2022/08/09 08:30:43;;;;;;;3.83;1.35;;;;;;;21.61;65.30;103053.97;5051103;28;20033;-77
2022/08/09 08:33:09;;;;;;;4.28;1.75;;;;;;;21.89;63.87;103045.69;5052799;28;20448;-76
2022/08/09 08:35:35;;;;;;;3.67;1.50;;;;;;;22.27;62.60;103046.19;5052530;28;20040;-76
2022/08/09 08:38:00;;;;;;;3.00;1.40;;;;;;;22.82;62.89;103052.97;5052312;28;20421;-77
2022/08/09 08:40:25;;;;;;;6.18;2.10;;;;;;;23.18;60.05;103052.69;5050920;28;20052;-76
2022/08/09 08:42:52;;;;;;;2.85;1.40;;;;;;;23.21;58.75;103044.25;5050826;28;20037;-76
2022/08/09 08:45:32;;;;;;;8.50;1.52;;;;;;;23.85;59.48;103039.88;5052480;28;20025;-78
2022/08/09 08:47:58;;;;;;;4.25;1.15;;;;;;;24.10;56.11;103043.41;5052556;28;20453;-77
2022/08/09 08:50:24;;;;;;;2.20;1.20;;;;;;;24.24;55.88;103048.09;5052442;28;20112;-76
2022/08/09 08:52:51;;;;;;;4.30;1.63;;;;;;;24.09;54.27;103058.00;5052743;28;20075;-77
2022/08/09 08:55:16;;;;;;;2.58;1.23;;;;;;;23.91;55.39;103061.78;5052180;28;20056;-77
2022/08/09 08:57:42;;;;;;;4.18;1.38;;;;;;;24.05;52.24;103060.25;5051897;28;20037;-79
2022/08/09 09:00:09;;;;;;;4.00;1.35;;;;;;;24.24;51.94;103063.56;5052210;28;20443;-77
2022/08/09 09:02:36;;;;;;;3.33;0.85;;;;;;;24.49;53.21;103060.72;5052002;28;20072;-78
2022/08/09 09:05:02;;;;;;;5.38;1.20;;;;;;;24.82;49.72;103062.22;5051974;28;20109;-77
2022/08/09 09:07:31;;;;;;;2.60;0.98;;;;;;;24.88;45.88;103068.81;5051949;28;20032;-77
2022/08/09 09:09:57;;;;;;;4.10;1.00;;;;;;;25.18;48.23;103063.50;5051930;28;20041;-78
2022/08/09 09:12:29;;;;;;;5.00;1.17;;;;;;;25.53;44.72;103063.91;5051894;28;20102;-77
2022/08/09 09:14:58;;;;;;;3.03;1.00;;;;;;;26.19;43.56;103063.19;5051851;28;20051;-78
2022/08/09 09:17:23;;;;;;;3.28;0.90;;;;;;;27.37;41.00;103061.09;5051952;28;20033;-77
2022/08/09 09:19:50;;;;;;;3.92;1.10;;;;;;;28.64;39.07;103063.72;5050510;28;20147;-78
2022/08/09 09:22:20;;;;;;;1.88;1.10;;;;;;;29.31;36.22;103055.59;5051811;28;20029;-77
2022/08/09 09:24:51;;;;;;;3.50;1.10;;;;;;;29.25;36.24;103050.94;5052336;28;20170;-78
2022/08/09 09:27:25;;;;;;;2.92;0.93;;;;;;;30.13;35.86;103045.06;5052435;28;20051;-79
2022/08/09 09:29:52;;;;;;;1.77;1.02;;;;;;;30.51;34.62;103051.66;5051509;28;20147;-78
2022/08/09 09:32:23;;;;;;;2.35;1.00;;;;;;;31.07;32.58;103061.03;5051598;28;20040;-79
2022/08/09 09:35:10;;;;;;;2.03;1.10;;;;;;;31.32;32.70;103050.03;5051856;28;20056;-78
2022/08/09 09:37:38;;;;;;;1.90;1.00;;;;;;;31.71;31.98;103044.34;5052163;28;20182;-78
2022/08/09 09:40:04;;;;;;;2.33;1.10;;;;;;;31.58;32.33;103059.09;5051575;28;20123;-78
2022/08/09 09:42:30;;;;;;;2.42;1.10;;;;;;;31.17;31.91;103064.13;5051525;28;20067;-78
2022/08/09 09:44:57;;;;;;;2.00;0.80;;;;;;;31.07;31.57;103067.34;5051313;28;20053;-78
2022/08/09 09:47:22;;;;;;;2.83;1.10;;;;;;;30.82;32.31;103061.81;5051470;28;20047;-78
2022/08/09 09:49:52;;;;;;;3.25;1.08;;;;;;;31.44;32.55;103066.59;5050383;28;20033;-78
2022/08/09 09:52:17;;;;;;;3.13;1.10;;;;;;;31.09;30.91;103062.47;5051021;28;20431;-76
2022/08/09 09:54:47;;;;;;;4.43;0.90;;;;;;;31.60;31.54;103062.44;5051235;28;20103;-77
2022/08/09 09:57:15;;;;;;;2.00;0.90;;;;;;;31.70;30.72;103056.44;5049652;28;20095;-77
2022/08/09 09:59:42;;;;;;;2.22;0.95;;;;;;;31.63;30.02;103059.25;5051112;28;20067;-77
2022/08/09 10:02:08;;;;;;;2.10;0.80;;;;;;;31.97;29.47;103059.72;5051182;28;20028;-79
2022/08/09 10:04:34;;;;;;;2.30;1.13;;;;;;;31.52;30.41;103051.72;5049840;28;20431;-81
2022/08/09 10:06:59;;;;;;;3.00;1.23;;;;;;;32.17;30.69;103051.22;5050709;28;20043;-78
2022/08/09 10:09:25;;;;;;;1.95;1.05;;;;;;;32.28;29.74;103044.09;5050983;28;20128;-78
2022/08/09 10:11:59;;;;;;;2.03;1.00;;;;;;;32.42;30.94;103050.25;5050807;28;20389;-78
2022/08/09 10:14:29;;;;;;;2.85;1.00;;;;;;;32.52;29.68;103042.28;5051052;28;20029;-79
2022/08/09 10:16:55;;;;;;;3.63;0.98;;;;;;;32.67;29.88;103034.44;5050706;28;20112;-78
2022/08/09 10:19:34;;;;;;;4.43;0.93;;;;;;;32.79;29.60;103037.22;5050712;28;20139;-80
2022/08/09 10:21:59;;;;;;;1.02;1.00;;;;;;;32.48;28.91;103036.38;5050977;28;20098;-78
2022/08/09 10:24:26;;;;;;;2.03;1.00;;;;;;;32.80;29.11;103032.53;5050186;28;20409;-80
2022/08/09 10:26:54;;;;;;;1.83;1.00;;;;;;;33.25;28.98;103039.44;5050767;28;20116;-79
2022/08/09 10:29:21;;;;;;;1.88;0.88;;;;;;;33.51;27.03;103027.06;5050564;28;20059;-79
2022/08/09 10:31:47;;;;;;;1.38;0.93;;;;;;;33.23;27.40;103031.41;5050791;28;20064;-79
2022/08/09 10:34:14;;;;;;;2.50;0.95;;;;;;;33.34;27.68;103036.09;5050830;28;20086;-79
2022/08/09 10:36:41;;;;;;;2.92;0.80;;;;;;;33.58;27.39;103038.84;5050677;28;20159;-79
2022/08/09 10:39:06;;;;;;;1.00;0.90;;;;;;;33.36;27.62;103036.69;5050478;28;20039;-78
2022/08/09 10:41:32;;;;;;;2.13;0.90;;;;;;;33.43;26.48;103031.06;5048566;28;20347;-78
2022/08/09 10:43:57;;;;;;;3.63;1.13;;;;;;;32.76;25.49;103032.19;5050724;28;20094;-74
2022/08/09 10:46:43;;;;;;;1.83;0.90;;;;;;;32.84;25.75;103033.75;5049889;28;20037;-74
2022/08/09 10:49:23;;;;;;;1.38;0.75;;;;;;;32.28;26.23;103033.09;5050315;28;20039;-74
2022/08/09 10:52:01;;;;;;;2.47;0.70;;;;;;;32.54;27.03;103031.03;5050352;28;20051;-75
2022/08/09 10:54:27;;;;;;;1.77;0.75;;;;;;;32.60;26.79;103028.16;5049810;28;20043;-74
2022/08/09 10:57:13;;;;;;;1.73;0.80;;;;;;;32.39;27.18;103026.78;5049702;28;20041;-74
2022/08/09 10:59:39;;;;;;;2.33;0.88;;;;;;;32.59;26.71;103033.91;5047371;28;20401;-75
2022/08/09 11:02:17;;;;;;;1.05;0.60;;;;;;;32.39;26.30;103020.44;5049462;28;20482;-74
2022/08/09 11:05:03;;;;;;;3.80;0.80;;;;;;;32.99;27.08;103028.63;5049479;28;20025;-76
2022/08/09 11:07:29;;;;;;;1.42;0.80;;;;;;;32.52;26.96;103026.56;5049767;28;20112;-75
2022/08/09 11:09:55;;;;;;;2.42;0.73;;;;;;;32.81;26.14;103035.06;5048265;28;20037;-75
2022/08/09 11:12:23;;;;;;;1.35;0.90;;;;;;;33.27;26.80;103026.25;5049172;28;20098;-75
2022/08/09 11:15:01;;;;;;;0.60;0.60;;;;;;;32.81;25.03;103025.94;5049480;28;20139;-74
2022/08/09 11:17:27;;;;;;;1.85;0.88;;;;;;;33.02;24.88;103028.16;5049440;28;20044;-74
2022/08/09 11:19:57;;;;;;;1.27;0.73;;;;;;;32.80;26.21;103021.50;5049371;28;20028;-74
2022/08/09 11:22:44;;;;;;;0.73;0.70;;;;;;;33.08;25.57;103026.34;5049162;28;20068;-73
2022/08/09 11:25:16;;;;;;;2.42;0.80;;;;;;;33.32;25.25;103030.00;5049263;28;20063;-74
2022/08/09 11:27:43;;;;;;;0.80;0.63;;;;;;;33.25;25.04;103029.25;5049403;28;20036;-73